createdAt,value
2019-05-12T00:01:58.751Z,1.10
2019-05-12T00:04:28.773Z,1.40
2019-05-12T00:06:58.677Z,1.40
2019-05-12T00:09:28.542Z,0.90
2019-05-12T00:11:59.113Z,2.43
2019-05-12T00:14:28.866Z,1.53
2019-05-12T00:16:58.379Z,1.20
2019-05-12T00:19:28.516Z,1.60
2019-05-12T00:21:58.798Z,1.33
2019-05-12T00:24:28.420Z,0.90
2019-05-12T00:27:00.753Z,1.60
2019-05-12T00:29:30.317Z,1.40
2019-05-12T00:31:59.873Z,2.00
2019-05-12T00:34:29.409Z,1.97
2019-05-12T00:36:59.051Z,1.50
2019-05-12T00:39:28.671Z,1.63
2019-05-12T00:41:58.796Z,1.27
2019-05-12T00:44:28.595Z,1.13
2019-05-12T00:46:58.159Z,2.83
2019-05-12T00:49:28.911Z,1.40
2019-05-12T00:51:58.860Z,1.30
2019-05-12T00:54:28.660Z,1.73
2019-05-12T00:56:58.707Z,1.20
2019-05-12T00:59:28.582Z,1.17
2019-05-12T01:01:58.753Z,1.73
2019-05-12T01:04:29.167Z,0.90
2019-05-12T01:06:58.922Z,0.90
2019-05-12T01:09:28.590Z,1.83
2019-05-12T01:11:58.894Z,1.77
2019-05-12T01:14:28.546Z,1.10
2019-05-12T01:16:58.078Z,1.47
2019-05-12T01:19:28.880Z,1.83
2019-05-12T01:21:58.782Z,0.90
2019-05-12T01:24:28.517Z,1.27
2019-05-12T01:26:58.415Z,1.27
2019-05-12T01:29:28.251Z,1.43
2019-05-12T01:32:04.368Z,1.07
2019-05-12T01:34:33.906Z,0.87
2019-05-12T01:37:21.498Z,1.23
2019-05-12T01:39:51.250Z,2.23
2019-05-12T01:42:20.789Z,0.80
2019-05-12T01:44:50.338Z,1.23
2019-05-12T01:47:19.899Z,1.20
2019-05-12T01:49:49.463Z,1.40
2019-05-12T01:52:19.155Z,1.37
2019-05-12T01:54:48.686Z,1.40
2019-05-12T01:57:18.822Z,1.23
2019-05-12T01:59:48.595Z,0.90
2019-05-12T02:02:18.450Z,1.40
2019-05-12T02:05:08.513Z,1.50
2019-05-12T02:07:43.787Z,3.30
2019-05-12T02:10:13.771Z,4.70
2019-05-12T02:12:43.319Z,1.87
2019-05-12T02:15:13.112Z,1.43
2019-05-12T02:17:42.654Z,2.67
2019-05-12T02:20:12.211Z,3.50
2019-05-12T02:22:41.766Z,2.40
2019-05-12T02:25:11.840Z,7.10
2019-05-12T02:27:41.420Z,4.37
2019-05-12T02:30:10.989Z,4.53
2019-05-12T02:32:48.628Z,5.03
2019-05-12T02:35:11.841Z,3.77
2019-05-12T02:37:45.008Z,4.97
2019-05-12T02:40:15.117Z,3.73
2019-05-12T02:42:46.247Z,4.70
2019-05-12T02:45:15.683Z,4.77
2019-05-12T02:47:45.899Z,3.97
2019-05-12T02:50:24.592Z,3.30
2019-05-12T02:52:54.607Z,3.63
2019-05-12T02:55:25.737Z,2.73
2019-05-12T02:57:55.261Z,4.03
2019-05-12T03:00:24.833Z,3.23
2019-05-12T03:02:54.831Z,4.57
2019-05-12T03:05:24.975Z,3.97
2019-05-12T03:07:55.324Z,2.20
2019-05-12T03:10:25.504Z,2.37
2019-05-12T03:12:55.079Z,3.47
2019-05-12T03:15:25.188Z,1.93
2019-05-12T03:17:54.946Z,3.37
2019-05-12T03:20:24.858Z,3.23
2019-05-12T03:22:55.537Z,3.10
2019-05-12T03:25:29.943Z,2.53
2019-05-12T03:27:56.638Z,4.00
2019-05-12T03:30:28.994Z,2.73
2019-05-12T03:32:58.570Z,2.37
2019-05-12T03:35:35.109Z,2.97
2019-05-12T03:37:59.623Z,4.13
2019-05-12T03:40:29.147Z,2.43
2019-05-12T03:42:58.696Z,1.50
2019-05-12T03:45:28.811Z,2.33
2019-05-12T03:47:58.375Z,2.83
2019-05-12T03:50:28.214Z,1.90
2019-05-12T03:52:58.174Z,1.80
2019-05-12T03:55:36.016Z,3.10
2019-05-12T03:58:00.043Z,1.83
2019-05-12T04:00:29.571Z,1.60
2019-05-12T04:02:59.029Z,1.53
2019-05-12T04:05:28.613Z,2.23
2019-05-12T04:07:58.418Z,1.73
2019-05-12T04:10:27.959Z,2.73
2019-05-12T04:12:57.584Z,1.53
2019-05-12T04:15:27.487Z,3.20
2019-05-12T04:17:57.053Z,2.37
2019-05-12T04:20:26.607Z,2.00
2019-05-12T04:22:56.148Z,1.53
2019-05-12T04:25:25.712Z,1.37
2019-05-12T04:27:55.646Z,1.13
2019-05-12T04:30:25.392Z,1.50
2019-05-12T04:32:55.487Z,2.33
2019-05-12T04:35:25.568Z,1.60
2019-05-12T04:37:55.681Z,1.93
2019-05-12T04:40:25.324Z,1.70
2019-05-12T04:42:55.223Z,1.57
2019-05-12T04:45:25.789Z,3.40
2019-05-12T04:47:55.446Z,1.70
2019-05-12T04:50:25.346Z,1.50
2019-05-12T04:52:55.079Z,1.80
2019-05-12T04:55:25.814Z,2.27
2019-05-12T04:57:55.464Z,2.30
2019-05-12T05:00:25.840Z,2.07
2019-05-12T05:02:55.650Z,1.40
2019-05-12T05:05:25.187Z,1.43
2019-05-12T05:07:55.022Z,1.37
2019-05-12T05:10:25.075Z,1.63
2019-05-12T05:12:55.114Z,1.60
2019-05-12T05:15:25.103Z,1.60
2019-05-12T05:17:54.815Z,1.30
2019-05-12T05:20:24.373Z,1.30
2019-05-12T05:22:54.275Z,1.50
2019-05-12T05:25:23.934Z,2.23
2019-05-12T05:27:53.482Z,2.50
2019-05-12T05:30:24.312Z,1.70
2019-05-12T05:32:54.422Z,2.07
2019-05-12T05:35:28.853Z,2.00
2019-05-12T05:37:55.496Z,1.20
2019-05-12T05:40:30.152Z,1.37
2019-05-12T05:42:56.370Z,1.20
2019-05-12T05:45:26.599Z,1.67
2019-05-12T05:47:59.685Z,1.40
2019-05-12T05:50:29.507Z,2.17
2019-05-12T05:52:58.774Z,1.90
2019-05-12T05:55:28.581Z,1.10
2019-05-12T05:57:59.752Z,1.33
2019-05-12T06:00:29.723Z,1.53
2019-05-12T06:02:59.378Z,1.60
2019-05-12T06:05:31.055Z,1.43
2019-05-12T06:08:00.831Z,1.90
2019-05-12T06:10:36.247Z,1.87
2019-05-12T06:13:04.150Z,1.20
2019-05-12T06:15:35.801Z,1.20
2019-05-12T06:18:05.035Z,1.20
2019-05-12T06:20:37.938Z,1.20
2019-05-12T06:23:06.000Z,1.53
2019-05-12T06:25:46.347Z,1.20
2019-05-12T06:28:08.954Z,0.90
2019-05-12T06:30:44.268Z,2.07
2019-05-12T06:33:09.332Z,1.00
2019-05-12T06:35:42.276Z,1.47
2019-05-12T06:38:10.178Z,1.70
2019-05-12T06:40:41.053Z,1.13
2019-05-12T06:43:10.971Z,1.93
2019-05-12T06:45:43.295Z,1.40
2019-05-12T06:48:14.000Z,1.07
2019-05-12T06:50:44.265Z,1.80
2019-05-12T06:53:14.138Z,1.17
2019-05-12T06:55:44.290Z,1.37
2019-05-12T06:58:14.133Z,1.20
2019-05-12T07:00:43.942Z,1.00
2019-05-12T07:03:14.340Z,1.13
2019-05-12T07:05:45.254Z,1.17
2019-05-12T07:08:17.871Z,0.90
2019-05-12T07:10:51.674Z,0.97
2019-05-12T07:13:22.989Z,1.20
2019-05-12T07:15:48.930Z,1.23
2019-05-12T07:18:25.952Z,0.87
2019-05-12T07:20:50.923Z,1.50
2019-05-12T07:23:26.008Z,0.97
2019-05-12T07:25:54.827Z,1.37
2019-05-12T07:28:23.797Z,1.50
2019-05-12T07:30:54.524Z,0.97
2019-05-12T07:33:24.201Z,1.70
2019-05-12T07:36:01.314Z,3.23
2019-05-12T07:38:27.428Z,0.80
2019-05-12T07:41:00.796Z,1.07
2019-05-12T07:43:29.406Z,1.30
2019-05-12T07:46:02.312Z,0.80
2019-05-12T07:48:33.239Z,0.93
2019-05-12T07:51:04.025Z,0.60
2019-05-12T07:53:33.896Z,1.60
2019-05-12T07:56:04.097Z,0.80
2019-05-12T07:58:33.867Z,1.47
2019-05-12T08:01:07.183Z,1.00
2019-05-12T08:03:34.783Z,0.80
2019-05-12T08:06:04.730Z,1.07
2019-05-12T08:08:34.453Z,0.77
2019-05-12T08:11:04.604Z,0.50
2019-05-12T08:13:37.858Z,0.90
2019-05-12T08:16:05.732Z,0.93
2019-05-12T08:18:40.036Z,1.23
2019-05-12T08:21:06.919Z,0.80
2019-05-12T08:23:38.098Z,1.30
2019-05-12T08:26:12.258Z,0.87
2019-05-12T08:28:40.340Z,1.47
2019-05-12T08:31:10.253Z,1.00
2019-05-12T08:33:39.990Z,2.00
2019-05-12T08:36:11.696Z,0.80
2019-05-12T08:38:41.107Z,1.50
2019-05-12T08:41:10.647Z,0.70
2019-05-12T08:43:40.608Z,1.07
2019-05-12T08:46:12.869Z,1.53
2019-05-12T08:48:44.640Z,1.07
2019-05-12T08:51:17.533Z,0.83
2019-05-12T08:54:07.798Z,1.07
2019-05-12T08:56:34.802Z,1.73
2019-05-12T08:59:04.633Z,0.77
2019-05-12T09:01:35.634Z,0.87
2019-05-12T09:04:11.172Z,0.73
2019-05-12T09:06:36.429Z,0.87
2019-05-12T09:09:07.561Z,1.30
2019-05-12T09:11:37.144Z,1.03
2019-05-12T09:14:07.254Z,1.70
2019-05-12T09:16:36.842Z,0.60
2019-05-12T09:19:10.059Z,1.47
2019-05-12T09:21:37.872Z,0.57
2019-05-12T09:24:07.444Z,1.23
2019-05-12T09:26:37.059Z,0.80
2019-05-12T09:29:07.509Z,1.23
2019-05-12T09:31:37.297Z,1.07
2019-05-12T09:34:11.543Z,0.90
2019-05-12T09:36:38.159Z,1.20
2019-05-12T09:39:08.241Z,1.17
2019-05-12T09:41:42.362Z,1.00
2019-05-12T09:44:09.228Z,0.80
2019-05-12T09:46:38.827Z,0.80
2019-05-12T09:49:08.455Z,1.50
2019-05-12T09:51:42.892Z,1.00
2019-05-12T09:54:09.415Z,2.47
2019-05-12T09:56:41.190Z,0.97
2019-05-12T09:59:19.102Z,1.03
2019-05-12T10:01:45.748Z,1.50
2019-05-12T10:04:16.354Z,0.60
2019-05-12T10:06:44.560Z,1.20
2019-05-12T10:09:15.617Z,3.50
2019-05-12T10:11:45.467Z,1.30
2019-05-12T10:14:15.091Z,1.77
2019-05-12T10:16:49.574Z,0.87
2019-05-12T10:19:16.241Z,1.23
2019-05-12T10:21:49.049Z,1.07
2019-05-12T10:24:17.452Z,0.70
2019-05-12T10:26:49.559Z,1.47
2019-05-12T10:29:20.801Z,0.73
2019-05-12T10:31:49.634Z,1.20
2019-05-12T10:34:24.078Z,1.40
2019-05-12T10:36:53.962Z,3.50
2019-05-12T10:39:24.383Z,0.90
2019-05-12T10:41:54.795Z,0.93
2019-05-12T10:44:29.902Z,1.17
2019-05-12T10:46:57.968Z,2.30
2019-05-12T10:49:27.556Z,1.00
2019-05-12T10:51:57.095Z,2.13
2019-05-12T10:54:26.699Z,1.03
2019-05-12T10:56:56.244Z,0.60
2019-05-12T10:59:32.255Z,0.60
2019-05-12T11:01:57.162Z,1.43
2019-05-12T11:04:35.783Z,1.70
2019-05-12T11:06:58.833Z,1.00
2019-05-12T11:09:31.593Z,1.83
2019-05-12T11:11:59.727Z,0.60
2019-05-12T11:14:30.528Z,0.63
2019-05-12T11:17:07.392Z,1.07
2019-05-12T11:19:33.730Z,1.27
2019-05-12T11:22:03.774Z,1.07
2019-05-12T11:24:33.807Z,0.90
2019-05-12T11:27:04.109Z,2.27
2019-05-12T11:29:45.704Z,1.20
2019-05-12T11:32:05.696Z,0.93
2019-05-12T11:34:35.236Z,0.67
2019-05-12T11:37:04.840Z,2.77
2019-05-12T11:39:38.803Z,0.93
2019-05-12T11:42:06.083Z,1.03
2019-05-12T11:44:35.695Z,1.37
2019-05-12T11:47:05.583Z,2.03
2019-05-12T11:49:35.224Z,1.03
2019-05-12T11:52:09.208Z,0.73
2019-05-12T11:54:36.075Z,0.90
2019-05-12T11:57:05.683Z,0.80
2019-05-12T11:59:35.258Z,1.00
2019-05-12T12:02:04.823Z,0.70
2019-05-12T12:04:46.796Z,1.57
2019-05-12T12:07:16.514Z,1.07
2019-05-12T12:09:49.506Z,0.80
2019-05-12T12:12:17.635Z,0.80
2019-05-12T12:14:50.394Z,0.60
2019-05-12T12:17:25.082Z,0.70
2019-05-12T12:19:50.120Z,1.30
2019-05-12T12:22:20.369Z,1.10
2019-05-12T12:24:51.051Z,2.97
2019-05-12T12:27:20.630Z,0.80
2019-05-12T12:29:50.173Z,2.00
2019-05-12T12:32:20.407Z,0.73
2019-05-12T12:34:50.130Z,1.47
2019-05-12T12:37:24.002Z,0.93
2019-05-12T12:39:51.004Z,0.80
2019-05-12T12:42:20.996Z,0.60
2019-05-12T12:44:53.528Z,0.70
2019-05-12T12:47:23.747Z,1.90
2019-05-12T12:49:53.171Z,0.80
2019-05-12T12:52:24.415Z,2.57
2019-05-12T12:54:54.383Z,0.70
2019-05-12T12:57:24.207Z,2.67
2019-05-12T12:59:53.843Z,0.53
2019-05-12T13:02:24.725Z,1.00
2019-05-12T13:04:55.041Z,2.30
2019-05-12T13:07:24.637Z,1.60
2019-05-12T13:10:03.612Z,0.80
2019-05-12T13:12:25.693Z,0.83
2019-05-12T13:14:55.529Z,1.83
2019-05-12T13:17:27.120Z,1.80
2019-05-12T13:19:58.839Z,5.50
2019-05-12T13:22:29.688Z,1.77
2019-05-12T13:25:04.335Z,5.63
2019-05-12T13:27:34.078Z,7.17
2019-05-12T13:30:05.250Z,6.50
2019-05-12T13:32:37.889Z,9.73
2019-05-12T13:35:09.775Z,8.10
2019-05-12T13:37:36.598Z,64.73
2019-05-12T13:40:06.241Z,50.60
2019-05-12T13:42:37.435Z,56.23
2019-05-12T13:45:07.226Z,39.07
2019-05-12T13:47:39.862Z,40.07
2019-05-12T13:50:13.391Z,41.93
2019-05-12T13:52:39.821Z,44.63
2019-05-12T13:55:09.384Z,39.07
2019-05-12T13:57:46.595Z,32.70
2019-05-12T14:00:11.068Z,28.93
2019-05-12T14:02:41.168Z,24.67
2019-05-12T14:05:14.113Z,34.70
2019-05-12T14:07:43.706Z,31.67
2019-05-12T14:10:14.163Z,28.23
2019-05-12T14:12:44.147Z,25.83
2019-05-12T14:15:14.340Z,29.13
2019-05-12T14:17:44.269Z,22.40
2019-05-12T14:20:19.727Z,21.93
2019-05-12T14:22:45.178Z,26.07
2019-05-12T14:25:15.375Z,19.87
2019-05-12T14:27:46.143Z,20.53
2019-05-12T14:30:15.698Z,12.43
2019-05-12T14:32:49.288Z,15.30
2019-05-12T14:35:16.970Z,15.00
2019-05-12T14:37:47.576Z,25.60
2019-05-12T14:40:21.197Z,16.57
2019-05-12T14:42:48.890Z,22.20
2019-05-12T14:45:19.515Z,28.63
2019-05-12T14:47:50.117Z,18.13
2019-05-12T14:50:20.075Z,13.27
2019-05-12T14:52:50.276Z,16.57
2019-05-12T14:55:21.425Z,18.43
2019-05-12T14:57:50.992Z,17.77
2019-05-12T15:00:23.607Z,15.00
2019-05-12T15:02:53.973Z,18.37
2019-05-12T15:05:27.443Z,15.40
2019-05-12T15:07:59.899Z,20.90
2019-05-12T15:10:26.915Z,13.77
2019-05-12T15:12:56.683Z,14.27
2019-05-12T15:15:26.591Z,15.43
2019-05-12T15:18:03.101Z,17.47
2019-05-12T15:20:28.038Z,19.50
2019-05-12T15:22:57.912Z,17.93
2019-05-12T15:25:29.533Z,27.93
2019-05-12T15:27:58.878Z,21.80
2019-05-12T15:30:28.851Z,14.83
2019-05-12T15:32:58.498Z,14.53
2019-05-12T15:35:28.108Z,10.37
2019-05-12T15:37:57.800Z,9.57
2019-05-12T15:40:27.420Z,15.07
2019-05-12T15:43:00.427Z,17.83
2019-05-12T15:45:28.305Z,13.73
2019-05-12T15:47:57.907Z,12.73
2019-05-12T15:50:27.483Z,10.57
2019-05-12T15:52:57.032Z,9.03
2019-05-12T15:55:32.791Z,6.83
2019-05-12T15:57:57.886Z,8.33
2019-05-12T16:00:27.458Z,8.00
2019-05-12T16:02:57.050Z,10.13
2019-05-12T16:05:31.010Z,5.40
2019-05-12T16:07:58.929Z,5.57
2019-05-12T16:10:28.496Z,7.80
2019-05-12T16:12:58.060Z,6.17
2019-05-12T16:15:49.389Z,9.70
2019-05-12T16:18:35.047Z,7.53
2019-05-12T16:21:09.208Z,5.40
2019-05-12T16:23:36.017Z,3.90
2019-05-12T16:26:08.098Z,7.07
2019-05-12T16:28:36.962Z,7.47
2019-05-12T16:31:08.714Z,8.83
2019-05-12T16:33:37.919Z,8.90
2019-05-12T16:36:11.538Z,12.40
2019-05-12T16:38:38.886Z,10.30
2019-05-12T16:41:09.092Z,11.57
2019-05-12T16:43:38.905Z,4.90
2019-05-12T16:46:08.550Z,5.70
2019-05-12T16:48:42.093Z,4.17
2019-05-12T16:51:09.515Z,6.13
2019-05-12T16:53:39.083Z,9.53
2019-05-12T16:56:08.747Z,10.00
2019-05-12T16:58:38.339Z,3.47
2019-05-12T17:01:08.486Z,5.03
2019-05-12T17:03:38.144Z,5.57
2019-05-12T17:06:07.745Z,7.00
2019-05-12T17:08:37.341Z,10.40
2019-05-12T17:11:23.037Z,10.80
2019-05-12T17:13:38.826Z,7.80
2019-05-12T17:16:08.436Z,6.93
2019-05-12T17:18:38.031Z,10.43
2019-05-12T17:21:08.156Z,6.20
2019-05-12T17:23:38.372Z,5.77
2019-05-12T17:26:07.952Z,6.70
2019-05-12T17:28:37.503Z,6.00
2019-05-12T17:31:07.104Z,4.40
2019-05-12T17:33:39.285Z,6.57
2019-05-12T17:36:14.444Z,5.43
2019-05-12T17:38:39.629Z,3.73
2019-05-12T17:41:09.180Z,3.57
2019-05-12T17:43:45.108Z,2.77
2019-05-12T17:46:13.506Z,2.83
2019-05-12T17:48:42.814Z,3.30
2019-05-12T17:51:13.725Z,2.37
2019-05-12T17:53:43.520Z,3.20
2019-05-12T17:56:13.902Z,3.07
2019-05-12T17:58:46.991Z,2.67
2019-05-12T18:01:15.281Z,3.30
2019-05-12T18:03:50.480Z,2.20
2019-05-12T18:06:20.312Z,6.33
2019-05-12T18:08:47.724Z,4.83
2019-05-12T18:11:17.428Z,5.80
2019-05-12T18:13:46.999Z,17.50
2019-05-12T18:16:21.950Z,10.17
2019-05-12T18:18:48.248Z,2.87
2019-05-12T18:21:21.720Z,4.90
2019-05-12T18:23:49.110Z,6.10
2019-05-12T18:26:36.656Z,6.37
2019-05-12T18:29:06.355Z,5.27
2019-05-12T18:31:36.207Z,4.23
2019-05-12T18:34:05.801Z,6.27
2019-05-12T18:36:35.631Z,4.40
2019-05-12T18:39:11.740Z,5.43
2019-05-12T18:41:39.763Z,5.13
2019-05-12T18:44:09.335Z,5.60
2019-05-12T18:46:44.868Z,4.93
2019-05-12T18:49:12.819Z,6.83
2019-05-12T18:51:43.517Z,8.00
2019-05-12T18:54:15.019Z,3.60
2019-05-12T18:56:44.073Z,5.17
2019-05-12T18:59:16.433Z,2.67
2019-05-12T19:01:45.156Z,3.40
2019-05-12T19:04:14.706Z,2.37
2019-05-12T19:06:44.773Z,3.13
2019-05-12T19:09:14.601Z,5.87
2019-05-12T19:11:46.671Z,8.37
2019-05-12T19:14:15.416Z,3.30
2019-05-12T19:16:45.107Z,3.57
2019-05-12T19:19:19.865Z,3.90
2019-05-12T19:21:47.027Z,3.97
2019-05-12T19:24:20.152Z,4.37
2019-05-12T19:26:49.402Z,3.13
2019-05-12T19:29:20.929Z,3.73
2019-05-12T19:31:52.307Z,7.17
2019-05-12T19:34:25.275Z,4.27
2019-05-12T19:36:53.213Z,2.10
2019-05-12T19:39:25.153Z,6.63
2019-05-12T19:41:54.548Z,4.70
2019-05-12T19:44:26.436Z,3.70
2019-05-12T19:46:55.456Z,1.93
2019-05-12T19:49:26.252Z,2.63
2019-05-12T19:51:56.432Z,1.47
2019-05-12T19:54:30.218Z,3.57
2019-05-12T19:56:57.279Z,2.70
2019-05-12T19:59:26.849Z,3.30
2019-05-12T20:01:56.570Z,3.60
2019-05-12T20:04:33.505Z,2.83
2019-05-12T20:06:58.580Z,4.63
2019-05-12T20:09:28.179Z,1.63
2019-05-12T20:12:01.194Z,3.10
2019-05-12T20:14:29.048Z,5.90
2019-05-12T20:16:58.655Z,1.70
2019-05-12T20:19:28.343Z,2.33
2019-05-12T20:21:57.922Z,3.03
2019-05-12T20:24:27.578Z,3.40
2019-05-12T20:26:57.197Z,2.13
2019-05-12T20:29:33.153Z,3.73
2019-05-12T20:31:58.338Z,1.40
2019-05-12T20:34:28.213Z,3.17
2019-05-12T20:36:59.029Z,4.07
2019-05-12T20:39:29.049Z,1.60
2019-05-12T20:42:00.664Z,2.23
2019-05-12T20:44:29.866Z,2.40
2019-05-12T20:47:01.568Z,2.47
2019-05-12T20:49:30.663Z,1.20
2019-05-12T20:52:03.932Z,2.07
2019-05-12T20:54:33.531Z,1.87
2019-05-12T20:57:07.800Z,2.10
2019-05-12T20:59:34.447Z,1.30
2019-05-12T21:02:03.994Z,2.63
2019-05-12T21:04:37.743Z,3.70
2019-05-12T21:07:05.134Z,2.17
2019-05-12T21:09:35.008Z,1.43
2019-05-12T21:12:04.634Z,2.47
2019-05-12T21:14:34.276Z,1.40
2019-05-12T21:17:09.361Z,4.10
2019-05-12T21:19:38.711Z,1.53
2019-05-12T21:22:06.412Z,3.23
2019-05-12T21:24:39.355Z,6.07
2019-05-12T21:27:09.406Z,1.27
2019-05-12T21:29:38.889Z,3.23
2019-05-12T21:32:13.927Z,2.40
2019-05-12T21:34:39.831Z,2.70
2019-05-12T21:37:09.398Z,1.77
2019-05-12T21:39:40.637Z,1.80
2019-05-12T21:42:10.359Z,1.57
2019-05-12T21:44:41.316Z,2.43
2019-05-12T21:47:11.265Z,1.23
2019-05-12T21:49:42.617Z,2.77
2019-05-12T21:52:13.605Z,2.50
2019-05-12T21:54:43.903Z,2.77
2019-05-12T21:57:13.680Z,6.70
2019-05-12T21:59:43.290Z,1.63
2019-05-12T22:02:14.675Z,3.67
2019-05-12T22:04:45.716Z,1.80
2019-05-12T22:07:15.787Z,1.80
2019-05-12T22:09:47.082Z,1.17
2019-05-12T22:12:16.708Z,1.33
2019-05-12T22:14:46.588Z,1.50
2019-05-12T22:17:16.240Z,2.80
2019-05-12T22:19:45.810Z,2.33
2019-05-12T22:22:19.553Z,1.43
2019-05-12T22:24:46.617Z,1.20
2019-05-12T22:27:25.888Z,3.03
2019-05-12T22:29:47.516Z,1.43
2019-05-12T22:32:19.191Z,1.10
2019-05-12T22:34:48.627Z,1.97
2019-05-12T22:37:18.710Z,1.30
2019-05-12T22:39:48.781Z,4.03
2019-05-12T22:42:21.625Z,1.27
2019-05-12T22:44:55.298Z,1.77
2019-05-12T22:47:23.987Z,1.83
2019-05-12T22:49:57.019Z,3.13
2019-05-12T22:52:24.802Z,4.40
2019-05-12T22:54:54.758Z,1.43
2019-05-12T22:57:24.397Z,1.00
2019-05-12T22:59:55.577Z,1.37
2019-05-12T23:02:29.862Z,0.83
2019-05-12T23:04:56.435Z,0.80
2019-05-12T23:07:29.692Z,2.40
2019-05-12T23:10:00.655Z,1.10
2019-05-12T23:12:29.354Z,2.73
2019-05-12T23:15:17.006Z,2.00
2019-05-12T23:17:49.361Z,1.53
2019-05-12T23:20:18.202Z,0.90
2019-05-12T23:22:47.758Z,1.13
2019-05-12T23:25:21.364Z,1.47
2019-05-12T23:27:48.596Z,2.50
2019-05-12T23:30:18.233Z,1.10
2019-05-12T23:32:51.542Z,1.87
2019-05-12T23:35:19.282Z,1.47
2019-05-12T23:37:48.831Z,1.30
2019-05-12T23:40:18.431Z,1.50
2019-05-12T23:42:47.972Z,0.77
2019-05-12T23:45:17.615Z,1.00
2019-05-12T23:47:47.545Z,1.60
2019-05-12T23:50:17.101Z,1.30
2019-05-12T23:52:46.653Z,1.73
2019-05-12T23:55:16.559Z,0.93
2019-05-12T23:57:46.103Z,1.13
